sensor_id;sensor_type;location;lat;lon;timestamp;pressure;altitude;pressure_sealevel;temperature;humidity
77023;BME280;65952;51.440;-2.054;2023-03-31T00:01:17;97697.59;;;10.47;83.03
77023;BME280;65952;51.440;-2.054;2023-03-31T00:03:43;97697.25;;;10.43;83.04
77023;BME280;65952;51.440;-2.054;2023-03-31T00:06:10;97688.94;;;10.45;82.64
77023;BME280;65952;51.440;-2.054;2023-03-31T00:08:41;97676.47;;;10.38;82.75
77023;BME280;65952;51.440;-2.054;2023-03-31T00:11:07;97662.63;;;10.42;82.84
77023;BME280;65952;51.440;-2.054;2023-03-31T00:13:33;97654.44;;;10.36;83.06
77023;BME280;65952;51.440;-2.054;2023-03-31T00:16:04;97648.38;;;10.41;83.26
77023;BME280;65952;51.440;-2.054;2023-03-31T00:18:30;97639.38;;;10.47;82.50
77023;BME280;65952;51.440;-2.054;2023-03-31T00:21:25;97619.28;;;10.26;83.39
77023;BME280;65952;51.440;-2.054;2023-03-31T00:24:03;97617.47;;;10.38;83.30
77023;BME280;65952;51.440;-2.054;2023-03-31T00:26:29;97604.50;;;10.23;84.31
77023;BME280;65952;51.440;-2.054;2023-03-31T00:28:55;97595.06;;;10.33;84.14
77023;BME280;65952;51.440;-2.054;2023-03-31T00:31:21;97589.25;;;10.36;83.88
77023;BME280;65952;51.440;-2.054;2023-03-31T00:33:47;97587.97;;;10.38;83.82
77023;BME280;65952;51.440;-2.054;2023-03-31T00:36:13;97579.94;;;10.50;83.60
77023;BME280;65952;51.440;-2.054;2023-03-31T00:38:46;97567.66;;;10.43;84.17
77023;BME280;65952;51.440;-2.054;2023-03-31T00:41:12;97564.41;;;10.40;84.07
77023;BME280;65952;51.440;-2.054;2023-03-31T00:43:38;97556.34;;;10.52;84.03
77023;BME280;65952;51.440;-2.054;2023-03-31T00:46:17;97552.28;;;10.50;84.31
77023;BME280;65952;51.440;-2.054;2023-03-31T00:48:54;97551.22;;;10.51;84.16
77023;BME280;65952;51.440;-2.054;2023-03-31T00:51:27;97537.81;;;10.51;83.77
77023;BME280;65952;51.440;-2.054;2023-03-31T00:53:56;97527.63;;;10.65;82.93
77023;BME280;65952;51.440;-2.054;2023-03-31T00:56:25;97523.31;;;10.76;82.43
77023;BME280;65952;51.440;-2.054;2023-03-31T00:58:55;97519.31;;;10.78;82.51
77023;BME280;65952;51.440;-2.054;2023-03-31T01:01:22;97511.63;;;10.82;82.03
77023;BME280;65952;51.440;-2.054;2023-03-31T01:03:51;97502.28;;;10.84;81.98
77023;BME280;65952;51.440;-2.054;2023-03-31T01:06:17;97489.59;;;10.97;81.76
77023;BME280;65952;51.440;-2.054;2023-03-31T01:08:45;97492.63;;;11.00;81.84
77023;BME280;65952;51.440;-2.054;2023-03-31T01:11:14;97489.06;;;10.83;82.29
77023;BME280;65952;51.440;-2.054;2023-03-31T01:13:41;97474.22;;;10.92;81.75
77023;BME280;65952;51.440;-2.054;2023-03-31T01:16:08;97471.69;;;10.85;82.01
77023;BME280;65952;51.440;-2.054;2023-03-31T01:18:34;97446.00;;;10.89;81.79
77023;BME280;65952;51.440;-2.054;2023-03-31T01:21:31;97452.75;;;10.92;81.49
77023;BME280;65952;51.440;-2.054;2023-03-31T01:24:30;97441.69;;;10.88;81.63
77023;BME280;65952;51.440;-2.054;2023-03-31T01:27:22;97430.16;;;10.88;81.75
77023;BME280;65952;51.440;-2.054;2023-03-31T01:43:58;97381.72;;;10.66;82.75
77023;BME280;65952;51.440;-2.054;2023-03-31T01:46:34;97380.75;;;10.72;82.54
77023;BME280;65952;51.440;-2.054;2023-03-31T01:49:20;97378.78;;;10.67;82.31
77023;BME280;65952;51.440;-2.054;2023-03-31T01:52:05;97369.69;;;10.68;81.95
77023;BME280;65952;51.440;-2.054;2023-03-31T01:54:41;97364.06;;;10.70;81.98
77023;BME280;65952;51.440;-2.054;2023-03-31T02:02:31;97333.00;;;10.57;81.36
77023;BME280;65952;51.440;-2.054;2023-03-31T02:05:08;97319.28;;;10.70;80.30
77023;BME280;65952;51.440;-2.054;2023-03-31T02:07:42;97301.22;;;10.66;80.60
77023;BME280;65952;51.440;-2.054;2023-03-31T02:10:10;97300.41;;;10.65;80.41
77023;BME280;65952;51.440;-2.054;2023-03-31T02:12:39;97288.94;;;10.70;80.61
77023;BME280;65952;51.440;-2.054;2023-03-31T02:15:07;97283.91;;;10.56;80.64
77023;BME280;65952;51.440;-2.054;2023-03-31T02:17:35;97281.06;;;10.63;80.56
77023;BME280;65952;51.440;-2.054;2023-03-31T02:20:09;97265.50;;;10.65;80.64
77023;BME280;65952;51.440;-2.054;2023-03-31T02:22:42;97256.50;;;10.54;80.14
77023;BME280;65952;51.440;-2.054;2023-03-31T02:25:14;97250.22;;;10.49;79.91
77023;BME280;65952;51.440;-2.054;2023-03-31T02:27:45;97242.34;;;10.42;80.28
77023;BME280;65952;51.440;-2.054;2023-03-31T02:30:12;97240.47;;;10.43;79.83
77023;BME280;65952;51.440;-2.054;2023-03-31T02:32:42;97232.22;;;10.32;80.17
77023;BME280;65952;51.440;-2.054;2023-03-31T02:35:12;97225.38;;;10.36;79.82
77023;BME280;65952;51.440;-2.054;2023-03-31T02:37:39;97227.38;;;10.29;79.91
77023;BME280;65952;51.440;-2.054;2023-03-31T02:40:09;97207.34;;;10.20;80.19
77023;BME280;65952;51.440;-2.054;2023-03-31T02:42:39;97210.53;;;10.34;79.93
77023;BME280;65952;51.440;-2.054;2023-03-31T02:45:33;97210.13;;;10.25;80.36
77023;BME280;65952;51.440;-2.054;2023-03-31T02:47:52;97198.00;;;10.22;80.65
77023;BME280;65952;51.440;-2.054;2023-03-31T02:50:19;97191.34;;;10.25;80.78
77023;BME280;65952;51.440;-2.054;2023-03-31T03:07:15;97136.44;;;10.11;82.17
77023;BME280;65952;51.440;-2.054;2023-03-31T03:10:07;97138.06;;;10.12;82.81
77023;BME280;65952;51.440;-2.054;2023-03-31T03:15:12;97123.28;;;10.09;83.38
77023;BME280;65952;51.440;-2.054;2023-03-31T03:17:46;97108.34;;;10.13;82.81
77023;BME280;65952;51.440;-2.054;2023-03-31T03:20:13;97109.00;;;10.20;83.07
77023;BME280;65952;51.440;-2.054;2023-03-31T03:22:40;97099.06;;;10.21;82.79
77023;BME280;65952;51.440;-2.054;2023-03-31T03:25:08;97094.59;;;10.27;82.45
77023;BME280;65952;51.440;-2.054;2023-03-31T03:27:35;97092.00;;;10.32;82.42
77023;BME280;65952;51.440;-2.054;2023-03-31T03:30:01;97088.34;;;10.21;82.73
77023;BME280;65952;51.440;-2.054;2023-03-31T03:32:28;97075.34;;;10.30;82.44
77023;BME280;65952;51.440;-2.054;2023-03-31T03:34:53;97076.81;;;10.20;82.75
77023;BME280;65952;51.440;-2.054;2023-03-31T03:37:19;97075.91;;;10.32;81.96
77023;BME280;65952;51.440;-2.054;2023-03-31T03:39:44;97062.44;;;10.27;82.07
77023;BME280;65952;51.440;-2.054;2023-03-31T03:42:10;97057.81;;;10.39;81.52
77023;BME280;65952;51.440;-2.054;2023-03-31T03:44:35;97050.94;;;10.31;81.56
77023;BME280;65952;51.440;-2.054;2023-03-31T03:47:00;97055.94;;;10.39;81.41
77023;BME280;65952;51.440;-2.054;2023-03-31T03:49:26;97049.44;;;10.35;81.71
77023;BME280;65952;51.440;-2.054;2023-03-31T03:51:51;97046.09;;;10.28;81.69
77023;BME280;65952;51.440;-2.054;2023-03-31T03:54:17;97042.22;;;10.36;81.52
77023;BME280;65952;51.440;-2.054;2023-03-31T03:56:42;97040.91;;;10.38;81.56
77023;BME280;65952;51.440;-2.054;2023-03-31T03:59:09;97025.63;;;10.22;81.85
77023;BME280;65952;51.440;-2.054;2023-03-31T04:01:34;97026.28;;;10.29;81.93
77023;BME280;65952;51.440;-2.054;2023-03-31T04:04:00;97030.88;;;10.34;81.82
77023;BME280;65952;51.440;-2.054;2023-03-31T04:06:25;97021.59;;;10.36;81.43
77023;BME280;65952;51.440;-2.054;2023-03-31T04:08:51;97011.66;;;10.37;81.29
77023;BME280;65952;51.440;-2.054;2023-03-31T04:11:19;97024.66;;;10.28;81.39
77023;BME280;65952;51.440;-2.054;2023-03-31T04:13:45;97010.66;;;10.26;81.70
77023;BME280;65952;51.440;-2.054;2023-03-31T04:16:11;97000.13;;;10.36;81.12
77023;BME280;65952;51.440;-2.054;2023-03-31T04:18:37;97003.63;;;10.37;81.21
77023;BME280;65952;51.440;-2.054;2023-03-31T04:21:07;97003.25;;;10.33;81.64
77023;BME280;65952;51.440;-2.054;2023-03-31T04:23:37;96991.00;;;10.37;81.89
77023;BME280;65952;51.440;-2.054;2023-03-31T04:26:03;96994.97;;;10.35;82.02
77023;BME280;65952;51.440;-2.054;2023-03-31T04:28:33;96984.84;;;10.37;81.54
77023;BME280;65952;51.440;-2.054;2023-03-31T04:30:59;96980.44;;;10.31;82.15
77023;BME280;65952;51.440;-2.054;2023-03-31T04:33:24;96978.09;;;10.34;81.96
77023;BME280;65952;51.440;-2.054;2023-03-31T04:35:49;96975.09;;;10.31;81.96
77023;BME280;65952;51.440;-2.054;2023-03-31T04:38:18;96986.78;;;10.42;81.69
77023;BME280;65952;51.440;-2.054;2023-03-31T04:40:48;96979.28;;;10.44;81.88
77023;BME280;65952;51.440;-2.054;2023-03-31T04:43:14;96976.53;;;10.38;81.74
77023;BME280;65952;51.440;-2.054;2023-03-31T04:45:40;96966.78;;;10.32;82.15
77023;BME280;65952;51.440;-2.054;2023-03-31T04:48:07;96974.91;;;10.37;82.26
77023;BME280;65952;51.440;-2.054;2023-03-31T04:50:32;96970.69;;;10.42;81.94
77023;BME280;65952;51.440;-2.054;2023-03-31T04:52:58;96979.81;;;10.40;81.77
77023;BME280;65952;51.440;-2.054;2023-03-31T04:55:24;96961.94;;;10.51;81.10
77023;BME280;65952;51.440;-2.054;2023-03-31T04:57:49;96963.31;;;10.54;81.22
77023;BME280;65952;51.440;-2.054;2023-03-31T05:00:16;96964.03;;;10.44;81.67
77023;BME280;65952;51.440;-2.054;2023-03-31T05:02:42;96958.41;;;10.46;81.43
77023;BME280;65952;51.440;-2.054;2023-03-31T05:05:08;96948.75;;;10.45;81.13
77023;BME280;65952;51.440;-2.054;2023-03-31T05:07:34;96955.47;;;10.47;81.10
77023;BME280;65952;51.440;-2.054;2023-03-31T05:10:00;96952.97;;;10.63;80.58
77023;BME280;65952;51.440;-2.054;2023-03-31T05:12:25;96949.69;;;10.55;80.91
77023;BME280;65952;51.440;-2.054;2023-03-31T05:14:50;96957.56;;;10.67;80.79
77023;BME280;65952;51.440;-2.054;2023-03-31T05:17:16;96948.25;;;10.75;80.10
77023;BME280;65952;51.440;-2.054;2023-03-31T05:19:42;96952.97;;;10.63;80.65
77023;BME280;65952;51.440;-2.054;2023-03-31T05:22:08;96942.78;;;10.65;80.33
77023;BME280;65952;51.440;-2.054;2023-03-31T05:24:33;96948.47;;;10.68;80.20
77023;BME280;65952;51.440;-2.054;2023-03-31T05:26:59;96955.47;;;10.69;80.23
77023;BME280;65952;51.440;-2.054;2023-03-31T05:29:24;96945.28;;;10.71;80.17
77023;BME280;65952;51.440;-2.054;2023-03-31T05:31:50;96950.09;;;10.69;80.43
77023;BME280;65952;51.440;-2.054;2023-03-31T05:34:17;96950.91;;;10.70;80.01
77023;BME280;65952;51.440;-2.054;2023-03-31T05:36:42;96954.16;;;10.72;80.09
77023;BME280;65952;51.440;-2.054;2023-03-31T05:39:08;96949.59;;;10.72;80.26
77023;BME280;65952;51.440;-2.054;2023-03-31T05:41:34;96946.78;;;10.62;80.87
77023;BME280;65952;51.440;-2.054;2023-03-31T05:44:00;96947.16;;;10.49;81.73
77023;BME280;65952;51.440;-2.054;2023-03-31T05:46:26;96944.00;;;10.52;81.77
77023;BME280;65952;51.440;-2.054;2023-03-31T05:48:52;96945.06;;;10.51;82.14
77023;BME280;65952;51.440;-2.054;2023-03-31T05:51:17;96949.38;;;10.52;82.10
77023;BME280;65952;51.440;-2.054;2023-03-31T05:53:43;96939.75;;;10.56;82.26
77023;BME280;65952;51.440;-2.054;2023-03-31T05:56:09;96943.75;;;10.53;82.09
77023;BME280;65952;51.440;-2.054;2023-03-31T05:58:35;96949.06;;;10.48;82.43
77023;BME280;65952;51.440;-2.054;2023-03-31T06:01:13;96932.69;;;10.50;82.71
77023;BME280;65952;51.440;-2.054;2023-03-31T06:03:40;96938.00;;;10.45;82.69
77023;BME280;65952;51.440;-2.054;2023-03-31T06:06:06;96952.03;;;10.52;82.34
77023;BME280;65952;51.440;-2.054;2023-03-31T06:08:33;96941.31;;;10.52;82.54
77023;BME280;65952;51.440;-2.054;2023-03-31T06:10:59;96938.06;;;10.50;82.80
77023;BME280;65952;51.440;-2.054;2023-03-31T06:13:25;96944.06;;;10.57;82.78
77023;BME280;65952;51.440;-2.054;2023-03-31T06:15:55;96943.31;;;10.62;82.54
77023;BME280;65952;51.440;-2.054;2023-03-31T06:18:21;96931.06;;;10.49;82.81
77023;BME280;65952;51.440;-2.054;2023-03-31T06:20:46;96939.94;;;10.49;83.00
77023;BME280;65952;51.440;-2.054;2023-03-31T06:23:11;96932.69;;;10.50;83.03
77023;BME280;65952;51.440;-2.054;2023-03-31T06:25:37;96927.28;;;10.45;83.28
77023;BME280;65952;51.440;-2.054;2023-03-31T06:28:02;96926.59;;;10.54;82.46
77023;BME280;65952;51.440;-2.054;2023-03-31T06:30:28;96925.28;;;10.57;82.62
77023;BME280;65952;51.440;-2.054;2023-03-31T06:32:53;96927.66;;;10.53;82.61
77023;BME280;65952;51.440;-2.054;2023-03-31T06:35:19;96933.63;;;10.61;82.58
77023;BME280;65952;51.440;-2.054;2023-03-31T06:37:44;96926.34;;;10.56;82.55
77023;BME280;65952;51.440;-2.054;2023-03-31T06:40:11;96924.13;;;10.48;83.17
77023;BME280;65952;51.440;-2.054;2023-03-31T06:42:36;96927.91;;;10.52;82.93
77023;BME280;65952;51.440;-2.054;2023-03-31T06:45:01;96919.34;;;10.55;83.01
77023;BME280;65952;51.440;-2.054;2023-03-31T06:47:27;96917.50;;;10.55;82.89
77023;BME280;65952;51.440;-2.054;2023-03-31T06:49:52;96922.84;;;10.55;83.23
77023;BME280;65952;51.440;-2.054;2023-03-31T06:52:17;96924.47;;;10.56;82.92
77023;BME280;65952;51.440;-2.054;2023-03-31T06:54:43;96916.88;;;10.48;83.18
77023;BME280;65952;51.440;-2.054;2023-03-31T06:57:08;96912.94;;;10.56;83.20
77023;BME280;65952;51.440;-2.054;2023-03-31T06:59:33;96914.97;;;10.49;83.44
77023;BME280;65952;51.440;-2.054;2023-03-31T07:01:59;96912.13;;;10.55;83.15
77023;BME280;65952;51.440;-2.054;2023-03-31T07:04:24;96912.22;;;10.66;82.91
77023;BME280;65952;51.440;-2.054;2023-03-31T07:06:50;96912.53;;;10.69;82.76
77023;BME280;65952;51.440;-2.054;2023-03-31T07:09:15;96910.41;;;10.71;82.99
77023;BME280;65952;51.440;-2.054;2023-03-31T07:11:40;96907.28;;;10.80;82.44
77023;BME280;65952;51.440;-2.054;2023-03-31T07:14:06;96909.59;;;10.71;82.82
77023;BME280;65952;51.440;-2.054;2023-03-31T07:16:31;96904.91;;;10.83;82.53
77023;BME280;65952;51.440;-2.054;2023-03-31T07:18:57;96909.56;;;10.66;83.28
77023;BME280;65952;51.440;-2.054;2023-03-31T07:21:24;96909.19;;;10.57;83.50
77023;BME280;65952;51.440;-2.054;2023-03-31T07:23:49;96905.25;;;10.43;83.77
77023;BME280;65952;51.440;-2.054;2023-03-31T07:26:15;96912.56;;;10.47;83.92
77023;BME280;65952;51.440;-2.054;2023-03-31T07:28:40;96905.63;;;10.51;83.64
77023;BME280;65952;51.440;-2.054;2023-03-31T07:31:10;96911.06;;;10.34;83.93
77023;BME280;65952;51.440;-2.054;2023-03-31T07:33:36;96915.94;;;10.37;83.89
77023;BME280;65952;51.440;-2.054;2023-03-31T07:36:05;96910.72;;;10.31;84.52
77023;BME280;65952;51.440;-2.054;2023-03-31T07:38:31;96933.66;;;10.38;84.54
77023;BME280;65952;51.440;-2.054;2023-03-31T07:40:56;96929.75;;;10.29;83.90
77023;BME280;65952;51.440;-2.054;2023-03-31T07:43:21;96932.03;;;10.37;83.43
77023;BME280;65952;51.440;-2.054;2023-03-31T07:45:47;96938.13;;;10.33;84.14
77023;BME280;65952;51.440;-2.054;2023-03-31T07:48:12;96942.31;;;10.46;83.31
77023;BME280;65952;51.440;-2.054;2023-03-31T07:50:38;96952.72;;;10.42;83.31
77023;BME280;65952;51.440;-2.054;2023-03-31T07:53:03;96960.56;;;10.49;83.30
77023;BME280;65952;51.440;-2.054;2023-03-31T07:55:28;96964.03;;;10.44;83.36
77023;BME280;65952;51.440;-2.054;2023-03-31T07:57:54;96966.41;;;10.40;83.23
77023;BME280;65952;51.440;-2.054;2023-03-31T08:00:20;96984.34;;;10.40;83.31
77023;BME280;65952;51.440;-2.054;2023-03-31T08:02:46;96993.53;;;10.44;83.78
77023;BME280;65952;51.440;-2.054;2023-03-31T08:05:13;96989.53;;;10.47;83.44
77023;BME280;65952;51.440;-2.054;2023-03-31T08:07:41;97012.84;;;10.46;83.79
77023;BME280;65952;51.440;-2.054;2023-03-31T08:10:09;97014.91;;;10.39;83.53
77023;BME280;65952;51.440;-2.054;2023-03-31T08:12:35;97008.25;;;10.42;83.71
77023;BME280;65952;51.440;-2.054;2023-03-31T08:15:01;97023.75;;;10.39;83.49
77023;BME280;65952;51.440;-2.054;2023-03-31T08:17:26;97025.19;;;10.47;83.23
77023;BME280;65952;51.440;-2.054;2023-03-31T08:19:52;97036.50;;;10.49;83.43
77023;BME280;65952;51.440;-2.054;2023-03-31T08:22:17;97045.72;;;10.59;82.70
77023;BME280;65952;51.440;-2.054;2023-03-31T08:24:43;97049.25;;;10.59;82.23
77023;BME280;65952;51.440;-2.054;2023-03-31T08:27:08;97057.47;;;10.75;81.83
77023;BME280;65952;51.440;-2.054;2023-03-31T08:29:33;97062.31;;;10.78;81.62
77023;BME280;65952;51.440;-2.054;2023-03-31T08:31:59;97073.63;;;10.80;81.90
77023;BME280;65952;51.440;-2.054;2023-03-31T08:34:24;97073.22;;;10.88;81.61
77023;BME280;65952;51.440;-2.054;2023-03-31T08:36:51;97079.94;;;10.68;81.97
77023;BME280;65952;51.440;-2.054;2023-03-31T08:39:16;97090.06;;;10.83;81.77
77023;BME280;65952;51.440;-2.054;2023-03-31T08:42:00;97087.91;;;10.85;81.88
77023;BME280;65952;51.440;-2.054;2023-03-31T08:44:36;97106.78;;;10.91;81.50
77023;BME280;65952;51.440;-2.054;2023-03-31T08:47:06;97106.81;;;10.73;81.96
77023;BME280;65952;51.440;-2.054;2023-03-31T08:49:44;97112.31;;;10.84;81.67
77023;BME280;65952;51.440;-2.054;2023-03-31T08:52:19;97120.31;;;10.79;81.57
77023;BME280;65952;51.440;-2.054;2023-03-31T08:54:55;97117.75;;;10.89;81.26
77023;BME280;65952;51.440;-2.054;2023-03-31T08:57:42;97118.97;;;10.98;80.33
77023;BME280;65952;51.440;-2.054;2023-03-31T09:00:17;97126.94;;;10.93;80.78
77023;BME280;65952;51.440;-2.054;2023-03-31T09:02:56;97135.28;;;10.97;80.54
77023;BME280;65952;51.440;-2.054;2023-03-31T09:05:34;97134.88;;;11.05;80.39
77023;BME280;65952;51.440;-2.054;2023-03-31T09:08:38;97142.06;;;10.99;80.62
77023;BME280;65952;51.440;-2.054;2023-03-31T09:11:09;97155.84;;;11.08;80.82
77023;BME280;65952;51.440;-2.054;2023-03-31T09:16:21;97171.72;;;11.10;80.85
77023;BME280;65952;51.440;-2.054;2023-03-31T09:18:49;97185.19;;;11.15;80.98
77023;BME280;65952;51.440;-2.054;2023-03-31T09:23:45;97194.44;;;11.24;80.39
77023;BME280;65952;51.440;-2.054;2023-03-31T09:26:37;97197.81;;;11.36;80.48
77023;BME280;65952;51.440;-2.054;2023-03-31T09:29:10;97192.56;;;11.47;80.29
77023;BME280;65952;51.440;-2.054;2023-03-31T09:31:41;97201.66;;;11.68;79.37
77023;BME280;65952;51.440;-2.054;2023-03-31T09:34:12;97210.91;;;11.77;79.82
77023;BME280;65952;51.440;-2.054;2023-03-31T09:36:38;97210.25;;;11.92;79.33
77023;BME280;65952;51.440;-2.054;2023-03-31T09:39:04;97214.78;;;11.86;78.64
77023;BME280;65952;51.440;-2.054;2023-03-31T09:41:30;97226.28;;;12.04;78.45
77023;BME280;65952;51.440;-2.054;2023-03-31T09:43:55;97223.03;;;12.02;78.03
77023;BME280;65952;51.440;-2.054;2023-03-31T09:46:30;97235.75;;;12.12;77.27
77023;BME280;65952;51.440;-2.054;2023-03-31T09:49:10;97234.94;;;12.39;77.17
77023;BME280;65952;51.440;-2.054;2023-03-31T09:51:41;97255.59;;;12.33;77.11
77023;BME280;65952;51.440;-2.054;2023-03-31T09:54:26;97253.63;;;12.23;77.01
77023;BME280;65952;51.440;-2.054;2023-03-31T09:56:54;97265.34;;;12.39;77.25
77023;BME280;65952;51.440;-2.054;2023-03-31T09:59:30;97254.63;;;12.17;77.24
77023;BME280;65952;51.440;-2.054;2023-03-31T10:01:58;97278.84;;;12.17;78.00
77023;BME280;65952;51.440;-2.054;2023-03-31T10:04:29;97271.34;;;12.19;78.24
77023;BME280;65952;51.440;-2.054;2023-03-31T10:06:56;97279.84;;;12.11;77.63
77023;BME280;65952;51.440;-2.054;2023-03-31T10:09:26;97275.59;;;12.15;77.87
77023;BME280;65952;51.440;-2.054;2023-03-31T10:12:03;97292.19;;;12.07;78.09
77023;BME280;65952;51.440;-2.054;2023-03-31T10:14:47;97294.81;;;12.29;77.75
77023;BME280;65952;51.440;-2.054;2023-03-31T10:17:18;97296.44;;;12.30;76.76
77023;BME280;65952;51.440;-2.054;2023-03-31T10:20:18;97322.22;;;12.48;76.65
77023;BME280;65952;51.440;-2.054;2023-03-31T10:22:44;97321.97;;;12.82;76.30
77023;BME280;65952;51.440;-2.054;2023-03-31T10:25:20;97324.06;;;13.45;73.91
77023;BME280;65952;51.440;-2.054;2023-03-31T10:27:50;97326.75;;;13.98;72.18
77023;BME280;65952;51.440;-2.054;2023-03-31T10:30:32;97341.34;;;14.02;71.58
77023;BME280;65952;51.440;-2.054;2023-03-31T10:33:00;97346.88;;;13.75;72.67
77023;BME280;65952;51.440;-2.054;2023-03-31T10:35:32;97353.84;;;13.71;73.52
77023;BME280;65952;51.440;-2.054;2023-03-31T10:38:02;97363.81;;;13.65;73.41
77023;BME280;65952;51.440;-2.054;2023-03-31T10:40:30;97358.75;;;13.74;73.20
77023;BME280;65952;51.440;-2.054;2023-03-31T10:43:15;97359.84;;;13.78;72.36
77023;BME280;65952;51.440;-2.054;2023-03-31T10:45:47;97376.78;;;14.26;72.13
77023;BME280;65952;51.440;-2.054;2023-03-31T10:48:19;97358.59;;;14.01;72.20
77023;BME280;65952;51.440;-2.054;2023-03-31T10:50:47;97380.75;;;14.13;71.09
77023;BME280;65952;51.440;-2.054;2023-03-31T10:53:14;97380.03;;;14.34;70.66
77023;BME280;65952;51.440;-2.054;2023-03-31T10:58:38;97395.16;;;14.35;69.76
77023;BME280;65952;51.440;-2.054;2023-03-31T11:06:25;97407.84;;;14.34;69.84
77023;BME280;65952;51.440;-2.054;2023-03-31T11:11:51;97418.91;;;14.33;69.65
77023;BME280;65952;51.440;-2.054;2023-03-31T11:14:39;97416.41;;;14.16;69.93
77023;BME280;65952;51.440;-2.054;2023-03-31T11:42:05;97459.91;;;13.49;74.88
77023;BME280;65952;51.440;-2.054;2023-03-31T11:44:40;97475.72;;;13.68;73.75
77023;BME280;65952;51.440;-2.054;2023-03-31T11:47:11;97486.78;;;13.71;73.22
77023;BME280;65952;51.440;-2.054;2023-03-31T11:49:51;97483.50;;;13.37;74.00
77023;BME280;65952;51.440;-2.054;2023-03-31T11:52:27;97480.75;;;13.31;74.89
77023;BME280;65952;51.440;-2.054;2023-03-31T11:55:02;97489.78;;;12.93;76.31
77023;BME280;65952;51.440;-2.054;2023-03-31T11:57:35;97496.13;;;13.04;75.95
77023;BME280;65952;51.440;-2.054;2023-03-31T12:00:17;97510.16;;;13.06;76.43
77023;BME280;65952;51.440;-2.054;2023-03-31T12:02:54;97509.22;;;12.95;76.67
77023;BME280;65952;51.440;-2.054;2023-03-31T12:05:23;97521.47;;;13.08;76.34
77023;BME280;65952;51.440;-2.054;2023-03-31T12:10:40;97521.63;;;12.74;76.85
77023;BME280;65952;51.440;-2.054;2023-03-31T12:15:56;97531.47;;;12.63;77.36
77023;BME280;65952;51.440;-2.054;2023-03-31T12:18:33;97540.47;;;12.74;76.96
77023;BME280;65952;51.440;-2.054;2023-03-31T12:21:02;97539.47;;;12.80;76.76
77023;BME280;65952;51.440;-2.054;2023-03-31T12:23:32;97547.31;;;12.42;77.57
77023;BME280;65952;51.440;-2.054;2023-03-31T12:28:37;97567.31;;;12.29;78.22
77023;BME280;65952;51.440;-2.054;2023-03-31T12:31:06;97559.34;;;12.17;78.46
77023;BME280;65952;51.440;-2.054;2023-03-31T12:33:41;97564.41;;;12.14;78.77
77023;BME280;65952;51.440;-2.054;2023-03-31T12:36:33;97574.47;;;11.90;79.07
77023;BME280;65952;51.440;-2.054;2023-03-31T12:39:12;97569.28;;;11.83;79.43
77023;BME280;65952;51.440;-2.054;2023-03-31T12:44:41;97595.66;;;11.69;79.85
77023;BME280;65952;51.440;-2.054;2023-03-31T12:55:44;97619.88;;;11.57;80.33
77023;BME280;65952;51.440;-2.054;2023-03-31T13:06:00;97633.28;;;11.86;79.96
77023;BME280;65952;51.440;-2.054;2023-03-31T13:08:51;97641.81;;;12.12;79.18
77023;BME280;65952;51.440;-2.054;2023-03-31T13:16:21;97645.91;;;12.31;78.72
77023;BME280;65952;51.440;-2.054;2023-03-31T13:18:54;97638.25;;;12.40;77.99
77023;BME280;65952;51.440;-2.054;2023-03-31T13:21:20;97646.94;;;12.64;78.06
77023;BME280;65952;51.440;-2.054;2023-03-31T13:23:46;97641.13;;;12.73;77.17
77023;BME280;65952;51.440;-2.054;2023-03-31T13:26:44;97645.84;;;12.82;77.32
77023;BME280;65952;51.440;-2.054;2023-03-31T13:35:31;97666.78;;;12.58;76.64
77023;BME280;65952;51.440;-2.054;2023-03-31T13:50:52;97704.44;;;11.95;78.52
77023;BME280;65952;51.440;-2.054;2023-03-31T13:56:44;97707.72;;;11.68;78.71
77023;BME280;65952;51.440;-2.054;2023-03-31T14:01:46;97725.72;;;11.97;78.33
77023;BME280;65952;51.440;-2.054;2023-03-31T14:07:16;97741.16;;;11.90;78.43
77023;BME280;65952;51.440;-2.054;2023-03-31T14:09:44;97741.06;;;11.84;78.19
77023;BME280;65952;51.440;-2.054;2023-03-31T14:12:28;97750.63;;;11.92;78.06
77023;BME280;65952;51.440;-2.054;2023-03-31T14:14:54;97754.66;;;11.66;78.28
77023;BME280;65952;51.440;-2.054;2023-03-31T14:17:22;97756.81;;;11.52;78.97
77023;BME280;65952;51.440;-2.054;2023-03-31T14:31:01;97794.25;;;11.30;79.39
77023;BME280;65952;51.440;-2.054;2023-03-31T14:33:50;97792.84;;;11.27;79.70
77023;BME280;65952;51.440;-2.054;2023-03-31T14:38:46;97796.06;;;11.53;78.63
77023;BME280;65952;51.440;-2.054;2023-03-31T14:41:18;97802.59;;;11.69;77.57
77023;BME280;65952;51.440;-2.054;2023-03-31T14:43:49;97808.75;;;11.69;76.83
77023;BME280;65952;51.440;-2.054;2023-03-31T14:46:19;97813.09;;;11.70;77.14
77023;BME280;65952;51.440;-2.054;2023-03-31T14:48:47;97805.63;;;11.61;77.11
77023;BME280;65952;51.440;-2.054;2023-03-31T14:51:15;97823.53;;;11.55;77.05
77023;BME280;65952;51.440;-2.054;2023-03-31T14:53:41;97833.56;;;11.48;77.69
77023;BME280;65952;51.440;-2.054;2023-03-31T14:56:17;97828.41;;;11.58;77.58
77023;BME280;65952;51.440;-2.054;2023-03-31T14:58:48;97835.91;;;11.44;77.42
77023;BME280;65952;51.440;-2.054;2023-03-31T15:01:17;97838.72;;;11.26;77.56
77023;BME280;65952;51.440;-2.054;2023-03-31T15:03:44;97842.22;;;11.02;78.49
77023;BME280;65952;51.440;-2.054;2023-03-31T15:06:11;97853.06;;;10.96;78.80
77023;BME280;65952;51.440;-2.054;2023-03-31T15:08:38;97853.16;;;10.89;79.11
77023;BME280;65952;51.440;-2.054;2023-03-31T15:11:07;97856.91;;;10.88;79.21
77023;BME280;65952;51.440;-2.054;2023-03-31T15:13:54;97867.88;;;10.98;78.83
77023;BME280;65952;51.440;-2.054;2023-03-31T15:16:42;97872.19;;;10.87;79.59
77023;BME280;65952;51.440;-2.054;2023-03-31T15:19:30;97878.84;;;10.97;79.21
77023;BME280;65952;51.440;-2.054;2023-03-31T15:22:16;97868.88;;;10.73;79.46
77023;BME280;65952;51.440;-2.054;2023-03-31T15:24:43;97870.09;;;10.89;79.20
77023;BME280;65952;51.440;-2.054;2023-03-31T15:29:46;97880.44;;;11.28;78.60
77023;BME280;65952;51.440;-2.054;2023-03-31T15:32:25;97882.63;;;11.31;77.73
77023;BME280;65952;51.440;-2.054;2023-03-31T15:34:52;97877.13;;;11.38;77.06
77023;BME280;65952;51.440;-2.054;2023-03-31T15:37:23;97888.72;;;11.62;77.44
77023;BME280;65952;51.440;-2.054;2023-03-31T15:39:54;97896.44;;;11.59;76.73